< < Back
Terminal Aerodrome Forecast


Current Version              Previous Versions:   1  2  3  4  5  6  7  8  9  

Terminal Aerodrome Forecast

461
FTUS44 KBMX 121139
TAFTCL
TAF
KTCL 121139Z 1212/1312 VRB03KT P6SM SCT250
     FM121600 32006KT P6SM SCT250
     FM121800 31010G16KT P6SM SCT250
     FM130000 35006KT P6SM SKC=



Latest METAR

606
SAUS70 KWBC 121600 RRG
MTRTCL
METAR KTCL 121553Z 00000KT 9SM CLR 10/00 A3019 RMK AO2 SLP222
T01000000


USA.gov is the U.S. government's official web portal to all federal, state and local government web resources and services.